sensor_id;sensor_type;location;lat;lon;timestamp;P1;durP1;ratioP1;P2;durP2;ratioP2
7683;SDS011;3884;48.616;12.872;2023-06-19T00:01:11;7.70;;;6.90;;
7683;SDS011;3884;48.616;12.872;2023-06-19T00:03:38;7.90;;;7.20;;
7683;SDS011;3884;48.616;12.872;2023-06-19T00:06:06;7.20;;;6.50;;
7683;SDS011;3884;48.616;12.872;2023-06-19T00:08:33;7.93;;;7.13;;
7683;SDS011;3884;48.616;12.872;2023-06-19T00:11:01;6.70;;;5.90;;
7683;SDS011;3884;48.616;12.872;2023-06-19T00:13:28;7.13;;;6.43;;
7683;SDS011;3884;48.616;12.872;2023-06-19T00:15:55;7.30;;;6.60;;
7683;SDS011;3884;48.616;12.872;2023-06-19T00:18:25;7.17;;;6.47;;
7683;SDS011;3884;48.616;12.872;2023-06-19T00:20:52;7.70;;;6.90;;
7683;SDS011;3884;48.616;12.872;2023-06-19T00:23:22;7.47;;;6.77;;
7683;SDS011;3884;48.616;12.872;2023-06-19T00:25:49;8.93;;;7.30;;
7683;SDS011;3884;48.616;12.872;2023-06-19T00:28:16;7.67;;;6.70;;
7683;SDS011;3884;48.616;12.872;2023-06-19T00:30:45;7.13;;;6.43;;
7683;SDS011;3884;48.616;12.872;2023-06-19T00:33:12;7.23;;;6.53;;
7683;SDS011;3884;48.616;12.872;2023-06-19T00:35:39;7.03;;;6.43;;
7683;SDS011;3884;48.616;12.872;2023-06-19T00:38:07;7.60;;;6.67;;
7683;SDS011;3884;48.616;12.872;2023-06-19T00:40:35;8.03;;;6.77;;
7683;SDS011;3884;48.616;12.872;2023-06-19T00:43:02;7.57;;;6.87;;
7683;SDS011;3884;48.616;12.872;2023-06-19T00:45:29;8.00;;;6.63;;
7683;SDS011;3884;48.616;12.872;2023-06-19T00:47:56;7.60;;;6.87;;
7683;SDS011;3884;48.616;12.872;2023-06-19T00:50:24;7.30;;;6.67;;
7683;SDS011;3884;48.616;12.872;2023-06-19T00:52:51;6.97;;;6.37;;
7683;SDS011;3884;48.616;12.872;2023-06-19T00:55:18;7.27;;;6.57;;
7683;SDS011;3884;48.616;12.872;2023-06-19T00:57:48;7.33;;;6.63;;
7683;SDS011;3884;48.616;12.872;2023-06-19T01:00:17;8.47;;;6.87;;
7683;SDS011;3884;48.616;12.872;2023-06-19T01:02:44;8.83;;;6.57;;
7683;SDS011;3884;48.616;12.872;2023-06-19T01:05:12;7.73;;;7.00;;
7683;SDS011;3884;48.616;12.872;2023-06-19T01:07:42;8.40;;;7.50;;
7683;SDS011;3884;48.616;12.872;2023-06-19T01:10:13;8.30;;;7.37;;
7683;SDS011;3884;48.616;12.872;2023-06-19T01:12:45;7.90;;;7.10;;
7683;SDS011;3884;48.616;12.872;2023-06-19T01:15:18;8.33;;;7.50;;
7683;SDS011;3884;48.616;12.872;2023-06-19T01:17:48;8.63;;;7.80;;
7683;SDS011;3884;48.616;12.872;2023-06-19T01:20:15;7.90;;;7.10;;
7683;SDS011;3884;48.616;12.872;2023-06-19T01:22:44;8.70;;;7.87;;
7683;SDS011;3884;48.616;12.872;2023-06-19T01:25:11;7.30;;;6.70;;
7683;SDS011;3884;48.616;12.872;2023-06-19T01:27:39;8.90;;;7.23;;
7683;SDS011;3884;48.616;12.872;2023-06-19T01:30:07;8.00;;;6.83;;
7683;SDS011;3884;48.616;12.872;2023-06-19T01:32:40;8.07;;;7.37;;
7683;SDS011;3884;48.616;12.872;2023-06-19T01:35:13;7.73;;;7.03;;
7683;SDS011;3884;48.616;12.872;2023-06-19T01:37:42;8.13;;;7.27;;
7683;SDS011;3884;48.616;12.872;2023-06-19T01:40:12;8.77;;;7.63;;
7683;SDS011;3884;48.616;12.872;2023-06-19T01:42:40;9.10;;;7.57;;
7683;SDS011;3884;48.616;12.872;2023-06-19T01:45:08;8.13;;;6.90;;
7683;SDS011;3884;48.616;12.872;2023-06-19T01:47:35;8.57;;;6.90;;
7683;SDS011;3884;48.616;12.872;2023-06-19T01:50:02;8.17;;;7.20;;
7683;SDS011;3884;48.616;12.872;2023-06-19T01:52:29;10.47;;;7.97;;
7683;SDS011;3884;48.616;12.872;2023-06-19T01:54:56;7.87;;;7.07;;
7683;SDS011;3884;48.616;12.872;2023-06-19T01:57:24;8.03;;;7.23;;
7683;SDS011;3884;48.616;12.872;2023-06-19T01:59:51;8.67;;;7.73;;
7683;SDS011;3884;48.616;12.872;2023-06-19T02:02:17;8.43;;;7.63;;
7683;SDS011;3884;48.616;12.872;2023-06-19T02:04:44;8.20;;;7.40;;
7683;SDS011;3884;48.616;12.872;2023-06-19T02:07:11;8.47;;;7.67;;
7683;SDS011;3884;48.616;12.872;2023-06-19T02:09:38;9.30;;;7.63;;
7683;SDS011;3884;48.616;12.872;2023-06-19T02:12:06;8.43;;;7.63;;
7683;SDS011;3884;48.616;12.872;2023-06-19T02:14:35;7.40;;;6.73;;
7683;SDS011;3884;48.616;12.872;2023-06-19T02:17:02;8.87;;;7.73;;
7683;SDS011;3884;48.616;12.872;2023-06-19T02:19:29;9.23;;;7.67;;
7683;SDS011;3884;48.616;12.872;2023-06-19T02:21:55;8.23;;;7.50;;
7683;SDS011;3884;48.616;12.872;2023-06-19T02:24:25;10.43;;;8.00;;
7683;SDS011;3884;48.616;12.872;2023-06-19T02:26:52;10.57;;;7.40;;
7683;SDS011;3884;48.616;12.872;2023-06-19T02:29:19;9.00;;;8.10;;
7683;SDS011;3884;48.616;12.872;2023-06-19T02:31:47;8.37;;;7.57;;
7683;SDS011;3884;48.616;12.872;2023-06-19T02:34:14;7.77;;;7.07;;
7683;SDS011;3884;48.616;12.872;2023-06-19T02:36:42;9.43;;;8.13;;
7683;SDS011;3884;48.616;12.872;2023-06-19T02:39:08;8.90;;;8.00;;
7683;SDS011;3884;48.616;12.872;2023-06-19T02:41:35;9.37;;;8.43;;
7683;SDS011;3884;48.616;12.872;2023-06-19T02:44:03;8.47;;;7.67;;
7683;SDS011;3884;48.616;12.872;2023-06-19T02:46:30;9.03;;;8.13;;
7683;SDS011;3884;48.616;12.872;2023-06-19T02:48:58;8.40;;;7.60;;
7683;SDS011;3884;48.616;12.872;2023-06-19T02:51:26;8.53;;;7.73;;
7683;SDS011;3884;48.616;12.872;2023-06-19T02:53:52;8.67;;;7.80;;
7683;SDS011;3884;48.616;12.872;2023-06-19T02:56:21;8.67;;;7.77;;
7683;SDS011;3884;48.616;12.872;2023-06-19T02:58:48;9.33;;;7.83;;
7683;SDS011;3884;48.616;12.872;2023-06-19T03:01:15;10.10;;;8.13;;
7683;SDS011;3884;48.616;12.872;2023-06-19T03:03:43;8.80;;;8.00;;
7683;SDS011;3884;48.616;12.872;2023-06-19T03:06:12;8.90;;;8.10;;
7683;SDS011;3884;48.616;12.872;2023-06-19T03:08:40;9.33;;;8.37;;
7683;SDS011;3884;48.616;12.872;2023-06-19T03:11:06;8.97;;;8.17;;
7683;SDS011;3884;48.616;12.872;2023-06-19T03:13:43;9.13;;;8.20;;
7683;SDS011;3884;48.616;12.872;2023-06-19T03:16:12;8.97;;;7.83;;
7683;SDS011;3884;48.616;12.872;2023-06-19T03:18:39;9.70;;;7.77;;
7683;SDS011;3884;48.616;12.872;2023-06-19T03:21:06;8.07;;;7.37;;
7683;SDS011;3884;48.616;12.872;2023-06-19T03:23:36;9.27;;;8.27;;
7683;SDS011;3884;48.616;12.872;2023-06-19T03:26:03;8.27;;;7.20;;
7683;SDS011;3884;48.616;12.872;2023-06-19T03:28:30;8.43;;;7.57;;
7683;SDS011;3884;48.616;12.872;2023-06-19T03:30:59;10.63;;;8.60;;
7683;SDS011;3884;48.616;12.872;2023-06-19T03:33:26;9.87;;;8.40;;
7683;SDS011;3884;48.616;12.872;2023-06-19T03:35:53;8.80;;;8.00;;
7683;SDS011;3884;48.616;12.872;2023-06-19T03:38:36;9.43;;;8.43;;
7683;SDS011;3884;48.616;12.872;2023-06-19T03:41:03;9.03;;;8.03;;
7683;SDS011;3884;48.616;12.872;2023-06-19T03:43:30;9.70;;;8.70;;
7683;SDS011;3884;48.616;12.872;2023-06-19T03:45:57;9.20;;;8.30;;
7683;SDS011;3884;48.616;12.872;2023-06-19T03:48:24;9.97;;;8.53;;
7683;SDS011;3884;48.616;12.872;2023-06-19T03:50:51;9.93;;;8.93;;
7683;SDS011;3884;48.616;12.872;2023-06-19T03:53:17;9.63;;;8.47;;
7683;SDS011;3884;48.616;12.872;2023-06-19T03:55:45;9.03;;;8.23;;
7683;SDS011;3884;48.616;12.872;2023-06-19T03:58:12;8.70;;;7.80;;
7683;SDS011;3884;48.616;12.872;2023-06-19T04:00:41;8.33;;;7.43;;
7683;SDS011;3884;48.616;12.872;2023-06-19T04:03:07;8.90;;;8.00;;
7683;SDS011;3884;48.616;12.872;2023-06-19T04:05:35;8.57;;;7.60;;
7683;SDS011;3884;48.616;12.872;2023-06-19T04:08:01;8.40;;;7.60;;
7683;SDS011;3884;48.616;12.872;2023-06-19T04:10:29;8.00;;;7.20;;
7683;SDS011;3884;48.616;12.872;2023-06-19T04:12:57;9.67;;;8.00;;
7683;SDS011;3884;48.616;12.872;2023-06-19T04:15:24;8.33;;;7.53;;
7683;SDS011;3884;48.616;12.872;2023-06-19T04:17:52;8.57;;;7.70;;
7683;SDS011;3884;48.616;12.872;2023-06-19T04:20:19;8.83;;;7.73;;
7683;SDS011;3884;48.616;12.872;2023-06-19T04:22:47;8.80;;;7.20;;
7683;SDS011;3884;48.616;12.872;2023-06-19T04:25:14;8.50;;;7.70;;
7683;SDS011;3884;48.616;12.872;2023-06-19T04:27:41;9.03;;;8.13;;
7683;SDS011;3884;48.616;12.872;2023-06-19T04:30:11;8.53;;;7.63;;
7683;SDS011;3884;48.616;12.872;2023-06-19T04:32:38;9.57;;;8.30;;
7683;SDS011;3884;48.616;12.872;2023-06-19T04:35:06;9.30;;;8.40;;
7683;SDS011;3884;48.616;12.872;2023-06-19T04:37:33;10.40;;;8.93;;
7683;SDS011;3884;48.616;12.872;2023-06-19T04:40:00;10.10;;;8.87;;
7683;SDS011;3884;48.616;12.872;2023-06-19T04:42:28;10.83;;;9.27;;
7683;SDS011;3884;48.616;12.872;2023-06-19T04:44:55;9.70;;;8.80;;
7683;SDS011;3884;48.616;12.872;2023-06-19T04:47:25;10.37;;;9.47;;
7683;SDS011;3884;48.616;12.872;2023-06-19T04:49:52;10.33;;;8.93;;
7683;SDS011;3884;48.616;12.872;2023-06-19T04:52:19;9.73;;;8.73;;
7683;SDS011;3884;48.616;12.872;2023-06-19T04:54:46;10.70;;;9.30;;
7683;SDS011;3884;48.616;12.872;2023-06-19T04:57:13;10.53;;;9.47;;
7683;SDS011;3884;48.616;12.872;2023-06-19T04:59:41;10.43;;;9.43;;
7683;SDS011;3884;48.616;12.872;2023-06-19T05:02:09;10.30;;;9.30;;
7683;SDS011;3884;48.616;12.872;2023-06-19T05:04:37;11.33;;;9.93;;
7683;SDS011;3884;48.616;12.872;2023-06-19T05:07:07;12.33;;;9.33;;
7683;SDS011;3884;48.616;12.872;2023-06-19T05:09:35;10.43;;;9.30;;
7683;SDS011;3884;48.616;12.872;2023-06-19T05:12:02;10.07;;;8.97;;
7683;SDS011;3884;48.616;12.872;2023-06-19T05:14:29;10.93;;;8.20;;
7683;SDS011;3884;48.616;12.872;2023-06-19T05:16:56;10.03;;;9.10;;
7683;SDS011;3884;48.616;12.872;2023-06-19T05:19:23;11.77;;;9.30;;
7683;SDS011;3884;48.616;12.872;2023-06-19T05:21:51;9.30;;;8.27;;
7683;SDS011;3884;48.616;12.872;2023-06-19T05:24:18;9.93;;;8.93;;
7683;SDS011;3884;48.616;12.872;2023-06-19T05:26:45;9.80;;;8.90;;
7683;SDS011;3884;48.616;12.872;2023-06-19T05:29:12;10.23;;;9.13;;
7683;SDS011;3884;48.616;12.872;2023-06-19T05:31:39;10.30;;;8.70;;
7683;SDS011;3884;48.616;12.872;2023-06-19T05:34:08;10.20;;;9.10;;
7683;SDS011;3884;48.616;12.872;2023-06-19T05:36:34;9.37;;;8.40;;
7683;SDS011;3884;48.616;12.872;2023-06-19T05:39:03;8.83;;;7.93;;
7683;SDS011;3884;48.616;12.872;2023-06-19T05:41:30;9.07;;;8.27;;
7683;SDS011;3884;48.616;12.872;2023-06-19T05:43:58;11.70;;;8.40;;
7683;SDS011;3884;48.616;12.872;2023-06-19T05:46:25;9.80;;;8.90;;
7683;SDS011;3884;48.616;12.872;2023-06-19T05:48:52;10.27;;;9.20;;
7683;SDS011;3884;48.616;12.872;2023-06-19T05:51:19;9.57;;;8.57;;
7683;SDS011;3884;48.616;12.872;2023-06-19T05:53:46;9.43;;;8.53;;
7683;SDS011;3884;48.616;12.872;2023-06-19T05:56:15;9.13;;;8.23;;
7683;SDS011;3884;48.616;12.872;2023-06-19T05:58:42;10.33;;;8.53;;
7683;SDS011;3884;48.616;12.872;2023-06-19T06:01:09;9.97;;;8.53;;
7683;SDS011;3884;48.616;12.872;2023-06-19T06:03:36;12.87;;;8.77;;
7683;SDS011;3884;48.616;12.872;2023-06-19T06:06:03;11.10;;;8.67;;
7683;SDS011;3884;48.616;12.872;2023-06-19T06:08:30;9.83;;;8.63;;
7683;SDS011;3884;48.616;12.872;2023-06-19T06:10:58;9.50;;;8.30;;
7683;SDS011;3884;48.616;12.872;2023-06-19T06:13:26;9.87;;;7.90;;
7683;SDS011;3884;48.616;12.872;2023-06-19T06:15:53;9.17;;;7.83;;
7683;SDS011;3884;48.616;12.872;2023-06-19T06:18:20;9.00;;;8.10;;
7683;SDS011;3884;48.616;12.872;2023-06-19T06:20:47;8.47;;;7.67;;
7683;SDS011;3884;48.616;12.872;2023-06-19T06:23:13;8.67;;;7.87;;
7683;SDS011;3884;48.616;12.872;2023-06-19T06:25:40;9.80;;;8.80;;
7683;SDS011;3884;48.616;12.872;2023-06-19T06:28:07;9.23;;;8.33;;
7683;SDS011;3884;48.616;12.872;2023-06-19T06:30:35;9.20;;;8.30;;
7683;SDS011;3884;48.616;12.872;2023-06-19T06:33:02;8.77;;;7.93;;
7683;SDS011;3884;48.616;12.872;2023-06-19T06:35:29;9.27;;;8.40;;
7683;SDS011;3884;48.616;12.872;2023-06-19T06:37:56;9.17;;;8.27;;
7683;SDS011;3884;48.616;12.872;2023-06-19T06:40:23;9.73;;;8.73;;
7683;SDS011;3884;48.616;12.872;2023-06-19T06:42:49;9.83;;;8.83;;
7683;SDS011;3884;48.616;12.872;2023-06-19T06:45:18;9.53;;;8.67;;
7683;SDS011;3884;48.616;12.872;2023-06-19T06:47:46;9.87;;;8.50;;
7683;SDS011;3884;48.616;12.872;2023-06-19T06:50:13;10.60;;;8.33;;
7683;SDS011;3884;48.616;12.872;2023-06-19T06:52:40;9.33;;;8.33;;
7683;SDS011;3884;48.616;12.872;2023-06-19T06:55:07;9.67;;;8.70;;
7683;SDS011;3884;48.616;12.872;2023-06-19T06:57:34;9.93;;;8.97;;
7683;SDS011;3884;48.616;12.872;2023-06-19T07:00:01;8.90;;;8.00;;
7683;SDS011;3884;48.616;12.872;2023-06-19T07:02:29;10.93;;;8.50;;
7683;SDS011;3884;48.616;12.872;2023-06-19T07:04:57;10.70;;;8.90;;
7683;SDS011;3884;48.616;12.872;2023-06-19T07:07:25;9.20;;;8.30;;
7683;SDS011;3884;48.616;12.872;2023-06-19T07:09:52;9.20;;;8.30;;
7683;SDS011;3884;48.616;12.872;2023-06-19T07:12:19;9.73;;;8.77;;
7683;SDS011;3884;48.616;12.872;2023-06-19T07:14:47;9.33;;;8.40;;
7683;SDS011;3884;48.616;12.872;2023-06-19T07:17:14;9.50;;;8.50;;
7683;SDS011;3884;48.616;12.872;2023-06-19T07:19:47;9.67;;;8.67;;
7683;SDS011;3884;48.616;12.872;2023-06-19T07:22:16;9.20;;;8.30;;
7683;SDS011;3884;48.616;12.872;2023-06-19T07:24:43;10.40;;;8.83;;
7683;SDS011;3884;48.616;12.872;2023-06-19T07:27:10;13.47;;;9.20;;
7683;SDS011;3884;48.616;12.872;2023-06-19T07:29:37;13.07;;;9.10;;
7683;SDS011;3884;48.616;12.872;2023-06-19T07:32:04;11.03;;;9.60;;
7683;SDS011;3884;48.616;12.872;2023-06-19T07:34:31;10.07;;;9.00;;
7683;SDS011;3884;48.616;12.872;2023-06-19T07:36:58;10.23;;;9.00;;
7683;SDS011;3884;48.616;12.872;2023-06-19T07:39:26;10.97;;;9.87;;
7683;SDS011;3884;48.616;12.872;2023-06-19T07:41:53;9.73;;;8.83;;
7683;SDS011;3884;48.616;12.872;2023-06-19T07:44:20;10.57;;;9.57;;
7683;SDS011;3884;48.616;12.872;2023-06-19T07:46:47;10.00;;;8.93;;
7683;SDS011;3884;48.616;12.872;2023-06-19T07:49:14;9.90;;;8.90;;
7683;SDS011;3884;48.616;12.872;2023-06-19T07:51:40;10.27;;;9.27;;
7683;SDS011;3884;48.616;12.872;2023-06-19T07:54:07;10.23;;;9.20;;
7683;SDS011;3884;48.616;12.872;2023-06-19T07:56:36;10.40;;;9.30;;
7683;SDS011;3884;48.616;12.872;2023-06-19T07:59:04;15.17;;;9.97;;
7683;SDS011;3884;48.616;12.872;2023-06-19T08:01:31;10.17;;;9.17;;
7683;SDS011;3884;48.616;12.872;2023-06-19T08:03:58;10.27;;;9.17;;
7683;SDS011;3884;48.616;12.872;2023-06-19T08:06:25;9.87;;;8.87;;
7683;SDS011;3884;48.616;12.872;2023-06-19T08:08:52;10.23;;;9.33;;
7683;SDS011;3884;48.616;12.872;2023-06-19T08:11:19;10.00;;;9.10;;
7683;SDS011;3884;48.616;12.872;2023-06-19T08:13:47;10.13;;;9.13;;
7683;SDS011;3884;48.616;12.872;2023-06-19T08:16:14;10.33;;;9.30;;
7683;SDS011;3884;48.616;12.872;2023-06-19T08:18:40;9.70;;;8.70;;
7683;SDS011;3884;48.616;12.872;2023-06-19T08:21:07;10.10;;;9.13;;
7683;SDS011;3884;48.616;12.872;2023-06-19T08:23:34;10.50;;;9.47;;
7683;SDS011;3884;48.616;12.872;2023-06-19T08:26:01;10.57;;;9.33;;
7683;SDS011;3884;48.616;12.872;2023-06-19T08:28:28;10.70;;;9.70;;
7683;SDS011;3884;48.616;12.872;2023-06-19T08:30:56;11.37;;;10.03;;
7683;SDS011;3884;48.616;12.872;2023-06-19T08:33:23;10.37;;;9.30;;
7683;SDS011;3884;48.616;12.872;2023-06-19T08:35:50;11.40;;;9.43;;
7683;SDS011;3884;48.616;12.872;2023-06-19T08:38:17;11.87;;;9.27;;
7683;SDS011;3884;48.616;12.872;2023-06-19T08:40:44;13.43;;;9.83;;
7683;SDS011;3884;48.616;12.872;2023-06-19T08:43:11;12.40;;;9.40;;
7683;SDS011;3884;48.616;12.872;2023-06-19T08:45:39;14.20;;;9.33;;
7683;SDS011;3884;48.616;12.872;2023-06-19T08:48:07;10.03;;;9.03;;
7683;SDS011;3884;48.616;12.872;2023-06-19T08:50:39;10.83;;;9.73;;
7683;SDS011;3884;48.616;12.872;2023-06-19T08:53:06;10.00;;;9.07;;
7683;SDS011;3884;48.616;12.872;2023-06-19T08:55:35;10.27;;;9.27;;
7683;SDS011;3884;48.616;12.872;2023-06-19T08:58:01;10.83;;;9.73;;
7683;SDS011;3884;48.616;12.872;2023-06-19T09:00:28;10.57;;;9.33;;
7683;SDS011;3884;48.616;12.872;2023-06-19T09:02:59;10.57;;;9.47;;
7683;SDS011;3884;48.616;12.872;2023-06-19T09:05:29;10.90;;;9.80;;
7683;SDS011;3884;48.616;12.872;2023-06-19T09:07:56;10.70;;;9.57;;
7683;SDS011;3884;48.616;12.872;2023-06-19T09:10:26;11.53;;;9.47;;
7683;SDS011;3884;48.616;12.872;2023-06-19T09:12:59;10.27;;;9.27;;
7683;SDS011;3884;48.616;12.872;2023-06-19T09:15:27;9.70;;;8.73;;
7683;SDS011;3884;48.616;12.872;2023-06-19T09:18:03;10.57;;;9.57;;
7683;SDS011;3884;48.616;12.872;2023-06-19T09:20:32;11.03;;;9.90;;
7683;SDS011;3884;48.616;12.872;2023-06-19T09:22:59;10.50;;;9.50;;
7683;SDS011;3884;48.616;12.872;2023-06-19T09:25:26;11.70;;;10.50;;
7683;SDS011;3884;48.616;12.872;2023-06-19T09:27:53;11.40;;;10.20;;
7683;SDS011;3884;48.616;12.872;2023-06-19T09:30:20;11.20;;;10.10;;
7683;SDS011;3884;48.616;12.872;2023-06-19T09:32:49;12.90;;;10.13;;
7683;SDS011;3884;48.616;12.872;2023-06-19T09:35:16;11.60;;;10.43;;
7683;SDS011;3884;48.616;12.872;2023-06-19T09:37:45;11.63;;;10.53;;
7683;SDS011;3884;48.616;12.872;2023-06-19T09:40:12;11.33;;;10.23;;
7683;SDS011;3884;48.616;12.872;2023-06-19T09:42:40;12.53;;;11.27;;
7683;SDS011;3884;48.616;12.872;2023-06-19T09:45:18;11.90;;;10.83;;
7683;SDS011;3884;48.616;12.872;2023-06-19T09:47:47;12.27;;;11.17;;
7683;SDS011;3884;48.616;12.872;2023-06-19T09:50:19;11.63;;;10.53;;
7683;SDS011;3884;48.616;12.872;2023-06-19T09:52:54;11.03;;;10.03;;
7683;SDS011;3884;48.616;12.872;2023-06-19T09:55:22;11.93;;;10.73;;
7683;SDS011;3884;48.616;12.872;2023-06-19T09:57:53;12.13;;;11.03;;
7683;SDS011;3884;48.616;12.872;2023-06-19T10:00:21;12.47;;;10.20;;
7683;SDS011;3884;48.616;12.872;2023-06-19T10:02:51;11.07;;;9.97;;
7683;SDS011;3884;48.616;12.872;2023-06-19T10:05:27;12.20;;;10.87;;
7683;SDS011;3884;48.616;12.872;2023-06-19T10:07:56;11.97;;;10.67;;
7683;SDS011;3884;48.616;12.872;2023-06-19T10:10:25;13.70;;;10.80;;
7683;SDS011;3884;48.616;12.872;2023-06-19T10:12:53;11.13;;;10.13;;
7683;SDS011;3884;48.616;12.872;2023-06-19T10:15:22;11.60;;;10.57;;
7683;SDS011;3884;48.616;12.872;2023-06-19T10:17:52;11.77;;;10.77;;
7683;SDS011;3884;48.616;12.872;2023-06-19T10:20:24;11.27;;;10.13;;
7683;SDS011;3884;48.616;12.872;2023-06-19T10:22:56;11.73;;;10.63;;
7683;SDS011;3884;48.616;12.872;2023-06-19T10:25:27;12.10;;;10.83;;
7683;SDS011;3884;48.616;12.872;2023-06-19T10:27:56;12.83;;;11.60;;
7683;SDS011;3884;48.616;12.872;2023-06-19T10:30:23;12.27;;;11.07;;
7683;SDS011;3884;48.616;12.872;2023-06-19T10:32:50;12.50;;;11.40;;
7683;SDS011;3884;48.616;12.872;2023-06-19T10:35:18;12.13;;;11.03;;
7683;SDS011;3884;48.616;12.872;2023-06-19T10:37:47;11.47;;;10.40;;
7683;SDS011;3884;48.616;12.872;2023-06-19T10:40:16;11.27;;;10.27;;
7683;SDS011;3884;48.616;12.872;2023-06-19T10:42:43;11.73;;;10.57;;
7683;SDS011;3884;48.616;12.872;2023-06-19T10:45:11;11.30;;;10.07;;
7683;SDS011;3884;48.616;12.872;2023-06-19T10:47:41;11.30;;;10.10;;
7683;SDS011;3884;48.616;12.872;2023-06-19T10:50:11;12.27;;;10.00;;
7683;SDS011;3884;48.616;12.872;2023-06-19T10:52:39;12.20;;;10.13;;
7683;SDS011;3884;48.616;12.872;2023-06-19T10:55:08;11.23;;;10.03;;
7683;SDS011;3884;48.616;12.872;2023-06-19T10:57:37;11.27;;;10.17;;
7683;SDS011;3884;48.616;12.872;2023-06-19T11:00:06;11.10;;;10.00;;
7683;SDS011;3884;48.616;12.872;2023-06-19T11:02:39;11.57;;;9.80;;
7683;SDS011;3884;48.616;12.872;2023-06-19T11:05:09;11.03;;;9.97;;
7683;SDS011;3884;48.616;12.872;2023-06-19T11:07:38;9.00;;;8.20;;
7683;SDS011;3884;48.616;12.872;2023-06-19T11:10:06;12.63;;;9.87;;
7683;SDS011;3884;48.616;12.872;2023-06-19T11:12:33;10.53;;;9.60;;
7683;SDS011;3884;48.616;12.872;2023-06-19T11:15:06;9.97;;;9.17;;
7683;SDS011;3884;48.616;12.872;2023-06-19T11:17:34;10.80;;;9.87;;
7683;SDS011;3884;48.616;12.872;2023-06-19T11:20:01;11.30;;;10.23;;
7683;SDS011;3884;48.616;12.872;2023-06-19T11:22:37;11.03;;;9.93;;
7683;SDS011;3884;48.616;12.872;2023-06-19T11:25:06;11.40;;;10.30;;
7683;SDS011;3884;48.616;12.872;2023-06-19T11:27:36;11.10;;;10.10;;
7683;SDS011;3884;48.616;12.872;2023-06-19T11:30:07;12.73;;;11.47;;
7683;SDS011;3884;48.616;12.872;2023-06-19T11:32:35;10.80;;;9.83;;
7683;SDS011;3884;48.616;12.872;2023-06-19T11:35:10;10.20;;;9.30;;
7683;SDS011;3884;48.616;12.872;2023-06-19T11:37:42;11.20;;;10.07;;
7683;SDS011;3884;48.616;12.872;2023-06-19T11:44:03;12.07;;;11.07;;
7683;SDS011;3884;48.616;12.872;2023-06-19T11:46:33;12.43;;;11.23;;
7683;SDS011;3884;48.616;12.872;2023-06-19T11:49:10;12.70;;;11.17;;
7683;SDS011;3884;48.616;12.872;2023-06-19T11:51:39;13.60;;;12.23;;
7683;SDS011;3884;48.616;12.872;2023-06-19T11:54:06;12.73;;;11.63;;
7683;SDS011;3884;48.616;12.872;2023-06-19T11:56:35;13.50;;;12.20;;
7683;SDS011;3884;48.616;12.872;2023-06-19T11:59:03;12.57;;;11.37;;
7683;SDS011;3884;48.616;12.872;2023-06-19T12:01:31;11.73;;;10.53;;
7683;SDS011;3884;48.616;12.872;2023-06-19T12:04:00;12.20;;;10.97;;
7683;SDS011;3884;48.616;12.872;2023-06-19T12:06:27;12.57;;;11.30;;
7683;SDS011;3884;48.616;12.872;2023-06-19T12:08:55;12.30;;;11.07;;
7683;SDS011;3884;48.616;12.872;2023-06-19T12:11:22;12.43;;;11.33;;
7683;SDS011;3884;48.616;12.872;2023-06-19T12:13:50;12.87;;;11.63;;
7683;SDS011;3884;48.616;12.872;2023-06-19T12:16:18;11.87;;;10.67;;
7683;SDS011;3884;48.616;12.872;2023-06-19T12:18:47;12.13;;;11.17;;
7683;SDS011;3884;48.616;12.872;2023-06-19T12:21:13;12.17;;;10.93;;
7683;SDS011;3884;48.616;12.872;2023-06-19T12:23:40;12.10;;;11.00;;
7683;SDS011;3884;48.616;12.872;2023-06-19T12:26:08;11.90;;;10.70;;
7683;SDS011;3884;48.616;12.872;2023-06-19T12:28:35;12.03;;;11.03;;
7683;SDS011;3884;48.616;12.872;2023-06-19T12:31:01;11.43;;;10.37;;
7683;SDS011;3884;48.616;12.872;2023-06-19T12:33:30;11.53;;;10.43;;
7683;SDS011;3884;48.616;12.872;2023-06-19T12:36:00;11.57;;;10.50;;
7683;SDS011;3884;48.616;12.872;2023-06-19T12:38:27;11.93;;;10.67;;
7683;SDS011;3884;48.616;12.872;2023-06-19T12:40:54;11.80;;;10.67;;
7683;SDS011;3884;48.616;12.872;2023-06-19T12:43:21;11.70;;;10.50;;
7683;SDS011;3884;48.616;12.872;2023-06-19T12:45:48;13.03;;;11.27;;
7683;SDS011;3884;48.616;12.872;2023-06-19T12:48:15;13.13;;;11.93;;
7683;SDS011;3884;48.616;12.872;2023-06-19T12:50:42;12.57;;;11.37;;
7683;SDS011;3884;48.616;12.872;2023-06-19T12:53:10;11.97;;;10.87;;
7683;SDS011;3884;48.616;12.872;2023-06-19T12:55:37;13.20;;;11.60;;
7683;SDS011;3884;48.616;12.872;2023-06-19T12:58:43;12.20;;;10.97;;
7683;SDS011;3884;48.616;12.872;2023-06-19T13:01:10;12.80;;;11.60;;
7683;SDS011;3884;48.616;12.872;2023-06-19T13:03:37;12.40;;;11.13;;
7683;SDS011;3884;48.616;12.872;2023-06-19T13:06:04;12.23;;;11.03;;
7683;SDS011;3884;48.616;12.872;2023-06-19T13:08:32;12.53;;;10.57;;
7683;SDS011;3884;48.616;12.872;2023-06-19T13:10:59;12.20;;;11.00;;
7683;SDS011;3884;48.616;12.872;2023-06-19T13:13:26;11.70;;;10.50;;
7683;SDS011;3884;48.616;12.872;2023-06-19T13:15:53;12.73;;;11.47;;
7683;SDS011;3884;48.616;12.872;2023-06-19T13:18:22;11.70;;;10.60;;
7683;SDS011;3884;48.616;12.872;2023-06-19T13:20:49;12.27;;;11.13;;
7683;SDS011;3884;48.616;12.872;2023-06-19T13:23:16;12.10;;;11.03;;
7683;SDS011;3884;48.616;12.872;2023-06-19T13:25:44;12.43;;;11.27;;
7683;SDS011;3884;48.616;12.872;2023-06-19T13:28:11;12.53;;;11.43;;
7683;SDS011;3884;48.616;12.872;2023-06-19T13:30:38;11.40;;;10.40;;
7683;SDS011;3884;48.616;12.872;2023-06-19T13:33:05;11.53;;;10.53;;
7683;SDS011;3884;48.616;12.872;2023-06-19T13:35:32;11.93;;;10.73;;
7683;SDS011;3884;48.616;12.872;2023-06-19T13:37:58;11.17;;;10.17;;
7683;SDS011;3884;48.616;12.872;2023-06-19T13:40:27;11.90;;;10.70;;
7683;SDS011;3884;48.616;12.872;2023-06-19T13:42:55;13.07;;;11.43;;
7683;SDS011;3884;48.616;12.872;2023-06-19T13:45:24;16.03;;;11.27;;
7683;SDS011;3884;48.616;12.872;2023-06-19T13:47:51;12.60;;;11.40;;
7683;SDS011;3884;48.616;12.872;2023-06-19T13:50:18;11.47;;;10.43;;
7683;SDS011;3884;48.616;12.872;2023-06-19T13:52:45;12.73;;;11.53;;
7683;SDS011;3884;48.616;12.872;2023-06-19T13:58:07;11.60;;;10.53;;
7683;SDS011;3884;48.616;12.872;2023-06-19T14:00:42;13.00;;;11.10;;
7683;SDS011;3884;48.616;12.872;2023-06-19T14:03:26;12.03;;;10.80;;
7683;SDS011;3884;48.616;12.872;2023-06-19T14:05:53;12.67;;;11.37;;
7683;SDS011;3884;48.616;12.872;2023-06-19T14:08:20;13.03;;;11.73;;
7683;SDS011;3884;48.616;12.872;2023-06-19T14:10:47;12.90;;;11.60;;
7683;SDS011;3884;48.616;12.872;2023-06-19T14:17:02;13.43;;;12.23;;
7683;SDS011;3884;48.616;12.872;2023-06-19T14:19:31;12.73;;;11.53;;
7683;SDS011;3884;48.616;12.872;2023-06-19T14:21:57;11.57;;;10.47;;
7683;SDS011;3884;48.616;12.872;2023-06-19T14:24:30;11.73;;;10.63;;
7683;SDS011;3884;48.616;12.872;2023-06-19T14:26:57;12.27;;;11.17;;
7683;SDS011;3884;48.616;12.872;2023-06-19T14:29:25;11.93;;;10.67;;
7683;SDS011;3884;48.616;12.872;2023-06-19T14:31:51;12.97;;;11.60;;
7683;SDS011;3884;48.616;12.872;2023-06-19T14:34:20;12.40;;;11.20;;
7683;SDS011;3884;48.616;12.872;2023-06-19T14:36:47;12.80;;;11.50;;
7683;SDS011;3884;48.616;12.872;2023-06-19T14:39:13;13.20;;;11.73;;
7683;SDS011;3884;48.616;12.872;2023-06-19T14:41:49;12.83;;;11.50;;
7683;SDS011;3884;48.616;12.872;2023-06-19T14:45:12;11.87;;;10.87;;
7683;SDS011;3884;48.616;12.872;2023-06-19T14:47:39;13.40;;;12.17;;
7683;SDS011;3884;48.616;12.872;2023-06-19T14:50:09;12.03;;;11.00;;
7683;SDS011;3884;48.616;12.872;2023-06-19T14:52:36;13.10;;;11.70;;
7683;SDS011;3884;48.616;12.872;2023-06-19T14:55:03;12.47;;;11.23;;
7683;SDS011;3884;48.616;12.872;2023-06-19T14:57:30;13.07;;;11.87;;
7683;SDS011;3884;48.616;12.872;2023-06-19T14:59:57;13.03;;;11.83;;
7683;SDS011;3884;48.616;12.872;2023-06-19T15:02:24;13.17;;;11.87;;
7683;SDS011;3884;48.616;12.872;2023-06-19T15:04:51;12.63;;;11.27;;